Time;durP1;ratioP1;P1;durP2;ratioP2;P2;SDS_P1;SDS_P2;PMS_P1;PMS_P2;Temp;Humidity;BMP_temperature;BMP_pressure;BME280_temperature;BME280_humidity;BME280_pressure;Samples;Min_cycle;Max_cycle;Signal;HPM_P1;HPM_P2
2022/12/22 03:26:14;;;;;;;2.90;2.25;;;10.20;99.90;;;;;;5071825;28;20575;-78
2022/12/22 03:28:40;;;;;;;2.63;2.42;;;10.20;99.90;;;;;;5071975;28;20021;-78
2022/12/22 03:31:06;;;;;;;2.65;2.00;;;10.00;99.90;;;;;;5072399;28;20029;-78
2022/12/22 03:33:32;;;;;;;3.47;2.47;;;10.00;99.90;;;;;;5077085;28;20028;-78
2022/12/22 03:35:58;;;;;;;3.35;2.10;;;9.90;99.90;;;;;;5076049;28;20100;-77
2022/12/22 03:38:24;;;;;;;3.17;2.25;;;9.80;99.90;;;;;;5071703;28;20028;-77
2022/12/22 03:40:50;;;;;;;3.17;2.47;;;9.80;99.90;;;;;;5071848;28;20024;-78
2022/12/22 03:48:34;;;;;;;4.15;2.30;;;9.80;99.90;;;;;;5071551;28;20102;-77
2022/12/22 03:51:00;;;;;;;2.03;1.83;;;9.80;99.90;;;;;;5077742;28;20477;-78
2022/12/22 03:53:25;;;;;;;2.35;2.03;;;9.70;99.90;;;;;;5078545;28;20445;-77
2022/12/22 03:55:51;;;;;;;2.58;1.90;;;9.60;99.90;;;;;;5078077;28;20028;-78
2022/12/22 03:58:17;;;;;;;3.47;2.35;;;9.60;99.90;;;;;;5076807;28;20422;-77
2022/12/22 04:00:42;;;;;;;4.63;2.58;;;9.50;99.90;;;;;;5071584;28;20111;-77
2022/12/22 04:03:08;;;;;;;2.10;1.90;;;9.50;99.90;;;;;;5071756;28;20021;-77
2022/12/22 04:05:34;;;;;;;3.78;2.35;;;9.50;99.90;;;;;;5090742;28;20040;-77
2022/12/22 04:07:59;;;;;;;2.15;1.90;;;9.40;99.90;;;;;;5078689;28;20032;-77
2022/12/22 04:13:09;;;;;;;3.30;2.25;;;9.40;99.90;;;;;;5072657;28;20023;-77
2022/12/22 04:15:35;;;;;;;2.33;1.80;;;9.20;99.90;;;;;;5090359;28;20103;-77
2022/12/22 04:18:01;;;;;;;3.40;2.58;;;9.20;99.90;;;;;;5071545;28;20495;-77
2022/12/22 04:20:27;;;;;;;3.83;2.20;;;9.20;99.90;;;;;;5071673;28;20567;-77
2022/12/22 04:22:54;;;;;;;3.78;2.35;;;9.20;99.90;;;;;;5068081;28;20031;-77
2022/12/22 04:25:20;;;;;;;2.85;2.60;;;9.20;99.90;;;;;;5091671;28;20038;-77
2022/12/22 04:27:46;;;;;;;4.38;2.72;;;9.00;99.90;;;;;;5089097;28;20040;-77
2022/12/22 04:30:12;;;;;;;4.35;2.90;;;9.00;99.90;;;;;;5070931;28;20474;-77
2022/12/22 04:32:38;;;;;;;3.95;2.72;;;9.10;99.90;;;;;;5073150;28;20107;-77
2022/12/22 04:35:05;;;;;;;4.20;3.00;;;9.10;99.90;;;;;;5071071;28;20478;-77
2022/12/22 04:37:31;;;;;;;6.30;2.88;;;9.10;99.90;;;;;;5070800;28;20021;-77
2022/12/22 04:39:57;;;;;;;4.07;2.97;;;8.90;99.90;;;;;;5070885;28;20042;-77
2022/12/22 04:42:22;;;;;;;4.65;3.15;;;9.00;99.90;;;;;;5082913;28;20028;-76
2022/12/22 04:44:49;;;;;;;5.18;3.47;;;8.90;99.90;;;;;;5070854;28;20025;-76
2022/12/22 04:47:15;;;;;;;3.90;3.15;;;8.80;99.90;;;;;;5082061;28;20020;-76
2022/12/22 04:49:40;;;;;;;4.65;3.83;;;8.90;99.90;;;;;;5070718;28;20405;-77
2022/12/22 04:52:06;;;;;;;4.60;3.33;;;8.80;99.90;;;;;;5082049;28;20024;-76
2022/12/22 04:54:32;;;;;;;5.75;3.40;;;8.80;99.90;;;;;;5070767;28;20538;-77
2022/12/22 04:56:58;;;;;;;4.95;3.20;;;8.90;99.90;;;;;;5077574;28;20478;-76
2022/12/22 04:59:23;;;;;;;4.60;3.25;;;8.90;99.90;;;;;;5070455;28;20028;-76
2022/12/22 05:01:49;;;;;;;4.43;3.72;;;8.90;99.90;;;;;;5077940;28;20023;-77
2022/12/22 05:04:15;;;;;;;4.55;3.50;;;8.80;99.90;;;;;;5070482;28;20760;-77
2022/12/22 05:06:41;;;;;;;5.35;3.90;;;8.80;99.90;;;;;;5075596;28;20509;-77
2022/12/22 05:09:06;;;;;;;4.43;3.67;;;8.70;99.90;;;;;;5064999;28;20025;-77
2022/12/22 05:11:32;;;;;;;5.47;3.38;;;8.60;99.90;;;;;;5069661;28;20020;-76
2022/12/22 05:13:58;;;;;;;4.90;3.35;;;8.60;99.90;;;;;;5067924;28;20031;-77
2022/12/22 05:16:23;;;;;;;5.90;3.72;;;8.60;99.90;;;;;;5073473;28;20507;-76
2022/12/22 05:18:49;;;;;;;5.40;3.90;;;8.50;99.90;;;;;;5070412;28;20521;-77
2022/12/22 05:21:21;;;;;;;5.32;3.75;;;8.50;99.90;;;;;;5072409;28;20029;-77
2022/12/22 05:23:47;;;;;;;5.18;3.75;;;8.40;99.90;;;;;;5081472;28;20159;-77
2022/12/22 05:26:15;;;;;;;4.22;3.28;;;8.40;99.90;;;;;;5070595;28;20097;-76
2022/12/22 05:28:42;;;;;;;5.43;3.70;;;8.40;99.90;;;;;;5070735;28;20032;-77
2022/12/22 05:31:13;;;;;;;5.10;3.92;;;8.50;99.90;;;;;;5070473;28;20017;-77
2022/12/22 05:33:39;;;;;;;5.85;3.90;;;8.40;99.90;;;;;;5070430;28;20024;-77
2022/12/22 05:36:05;;;;;;;4.45;3.63;;;8.40;99.90;;;;;;5070047;28;20028;-77
2022/12/22 05:38:31;;;;;;;5.07;3.53;;;8.30;99.90;;;;;;5074638;28;20078;-76
2022/12/22 05:40:57;;;;;;;5.28;3.90;;;8.40;99.90;;;;;;5070572;28;20514;-77
2022/12/22 05:43:22;;;;;;;5.05;3.70;;;8.40;99.90;;;;;;5069983;28;20028;-77
2022/12/22 05:45:48;;;;;;;5.60;3.80;;;8.30;99.90;;;;;;5070703;28;20543;-76
2022/12/22 05:48:14;;;;;;;4.53;3.30;;;8.30;99.90;;;;;;5078144;28;20577;-77
2022/12/22 05:50:40;;;;;;;4.53;3.45;;;8.30;99.90;;;;;;5065656;28;20033;-77
2022/12/22 05:53:06;;;;;;;5.97;3.45;;;8.20;99.90;;;;;;5074801;28;20025;-77
2022/12/22 05:55:32;;;;;;;5.25;3.72;;;8.30;99.90;;;;;;5074037;28;20051;-77
2022/12/22 05:58:01;;;;;;;4.75;3.20;;;8.20;99.90;;;;;;5078044;28;20024;-77
2022/12/22 06:00:29;;;;;;;5.22;3.58;;;8.10;99.90;;;;;;5078285;28;20112;-77
2022/12/22 06:02:55;;;;;;;4.68;3.28;;;8.10;99.90;;;;;;5079431;28;20081;-77
2022/12/22 06:05:21;;;;;;;5.45;3.95;;;8.00;99.90;;;;;;5073830;28;20460;-77
2022/12/22 06:07:46;;;;;;;6.10;3.92;;;8.10;99.90;;;;;;5076272;28;20587;-77
2022/12/22 06:10:13;;;;;;;5.00;3.15;;;8.00;99.90;;;;;;5073773;28;20039;-76
2022/12/22 06:12:39;;;;;;;4.70;3.60;;;8.10;99.90;;;;;;5074766;28;20025;-76
2022/12/22 06:15:06;;;;;;;4.07;3.08;;;7.90;99.90;;;;;;5073862;28;20036;-76
2022/12/22 06:17:32;;;;;;;4.70;3.35;;;8.00;99.90;;;;;;5080514;28;20051;-76
2022/12/22 06:19:57;;;;;;;4.35;2.75;;;8.00;99.90;;;;;;5073688;28;20493;-77
2022/12/22 06:22:23;;;;;;;4.85;3.05;;;7.90;99.90;;;;;;5073914;28;20107;-77
2022/12/22 06:24:49;;;;;;;4.03;2.95;;;7.90;99.90;;;;;;5073889;28;20490;-76
2022/12/22 06:27:14;;;;;;;4.00;3.05;;;7.90;99.90;;;;;;5077643;28;20045;-76
2022/12/22 06:29:40;;;;;;;3.90;2.80;;;8.00;99.90;;;;;;5073353;28;20603;-77
2022/12/22 06:32:06;;;;;;;6.70;3.50;;;7.90;99.90;;;;;;5073433;28;20024;-77
2022/12/22 06:34:31;;;;;;;5.15;3.10;;;8.00;99.90;;;;;;5073589;28;20081;-77
2022/12/22 06:36:57;;;;;;;3.80;2.88;;;8.00;99.90;;;;;;5076542;28;20527;-77
2022/12/22 06:39:23;;;;;;;3.85;2.88;;;8.00;99.90;;;;;;5073355;28;20033;-77
2022/12/22 06:44:33;;;;;;;4.10;3.08;;;8.00;99.90;;;;;;5073671;28;20106;-77
2022/12/22 06:46:59;;;;;;;4.07;2.65;;;8.00;99.90;;;;;;5072943;28;20071;-77
2022/12/22 06:49:24;;;;;;;4.53;3.00;;;8.00;99.90;;;;;;5073331;28;20016;-77
2022/12/22 06:51:50;;;;;;;3.70;2.60;;;8.00;99.90;;;;;;5075643;28;20024;-77
2022/12/22 06:54:16;;;;;;;4.78;2.72;;;7.90;99.90;;;;;;5073094;28;20557;-77
2022/12/22 06:56:42;;;;;;;4.43;2.70;;;7.80;99.90;;;;;;5073240;28;20063;-76
2022/12/22 06:59:08;;;;;;;3.33;2.88;;;7.80;99.90;;;;;;5060263;28;20103;-76
2022/12/22 07:01:33;;;;;;;3.78;3.15;;;7.80;99.90;;;;;;5072893;28;20103;-77
2022/12/22 07:03:59;;;;;;;4.32;2.90;;;7.80;99.90;;;;;;5072242;28;20281;-77
2022/12/22 07:06:25;;;;;;;4.25;2.97;;;7.90;99.90;;;;;;5073074;28;20024;-77
2022/12/22 07:08:50;;;;;;;3.70;2.88;;;7.90;99.90;;;;;;5079334;28;20486;-77
2022/12/22 07:11:16;;;;;;;3.17;2.45;;;7.80;99.90;;;;;;5079879;28;20127;-77
2022/12/22 07:13:42;;;;;;;4.13;2.70;;;7.80;99.90;;;;;;5070318;28;20029;-77
2022/12/22 07:16:09;;;;;;;4.05;3.10;;;7.70;99.90;;;;;;5072769;28;20031;-77
2022/12/22 07:18:38;;;;;;;3.55;2.63;;;7.80;99.90;;;;;;5082655;28;20020;-77
2022/12/22 07:21:07;;;;;;;3.40;2.70;;;7.80;99.90;;;;;;5072841;28;20036;-77
2022/12/22 07:23:34;;;;;;;2.90;2.60;;;7.90;99.90;;;;;;5081240;28;20078;-77
2022/12/22 07:26:00;;;;;;;3.92;2.85;;;7.90;99.90;;;;;;5073097;28;20534;-77
2022/12/22 07:28:26;;;;;;;3.03;2.60;;;7.90;99.90;;;;;;5072730;28;20071;-77
2022/12/22 07:30:53;;;;;;;4.55;2.90;;;8.00;99.90;;;;;;5072501;28;20032;-77
2022/12/22 07:33:19;;;;;;;3.67;2.63;;;8.00;99.90;;;;;;5072087;28;20028;-76
2022/12/22 07:35:45;;;;;;;4.75;3.17;;;8.00;99.90;;;;;;5071329;28;20036;-77
2022/12/22 07:38:11;;;;;;;4.55;3.40;;;8.10;99.90;;;;;;5076569;28;20497;-76
2022/12/22 07:40:37;;;;;;;5.53;2.80;;;8.10;99.90;;;;;;5072248;28;20032;-77
2022/12/22 07:43:02;;;;;;;4.82;3.15;;;8.10;99.90;;;;;;5072266;28;20162;-77
2022/12/22 07:45:28;;;;;;;4.47;3.08;;;8.20;99.90;;;;;;5071133;28;20615;-77
2022/12/22 07:48:01;;;;;;;3.90;3.20;;;8.10;99.90;;;;;;5073531;28;20107;-77
2022/12/22 07:50:27;;;;;;;4.28;2.63;;;8.20;99.90;;;;;;5073254;28;20031;-76
2022/12/22 07:53:01;;;;;;;3.28;2.45;;;8.10;99.90;;;;;;5080694;28;20016;-77
2022/12/22 07:55:28;;;;;;;3.72;2.58;;;8.20;99.90;;;;;;5075848;28;20114;-77
2022/12/22 07:57:54;;;;;;;4.20;3.00;;;8.40;99.90;;;;;;5071763;28;20043;-76
2022/12/22 08:00:22;;;;;;;3.40;2.55;;;8.40;99.90;;;;;;5068973;28;20260;-76
2022/12/22 08:02:53;;;;;;;6.15;4.05;;;8.50;99.90;;;;;;5071092;28;20104;-77
2022/12/22 08:05:19;;;;;;;10.30;5.65;;;8.70;99.90;;;;;;5070938;28;20029;-76
2022/12/22 08:07:46;;;;;;;7.15;4.80;;;8.70;99.90;;;;;;5072386;28;20033;-76
2022/12/22 08:10:12;;;;;;;7.03;4.55;;;8.70;99.90;;;;;;5067621;28;20118;-76
2022/12/22 08:12:38;;;;;;;10.13;5.93;;;8.70;99.90;;;;;;5071446;28;20497;-77
2022/12/22 08:15:05;;;;;;;7.72;5.22;;;8.80;99.90;;;;;;5071487;28;20020;-76
2022/12/22 08:17:31;;;;;;;6.78;5.47;;;8.80;99.90;;;;;;5070415;28;20031;-76
2022/12/22 08:19:57;;;;;;;8.55;5.70;;;8.80;99.90;;;;;;5075198;28;20028;-76
2022/12/22 08:22:23;;;;;;;8.25;5.90;;;8.90;99.90;;;;;;5077999;28;20028;-77
2022/12/22 08:24:50;;;;;;;7.75;6.25;;;9.00;99.90;;;;;;5071194;28;20028;-76
2022/12/22 08:27:19;;;;;;;7.00;5.85;;;9.00;99.90;;;;;;5070508;28;20040;-76
2022/12/22 08:29:48;;;;;;;7.57;5.95;;;9.00;99.90;;;;;;5088649;28;20028;-76
2022/12/22 08:32:15;;;;;;;8.38;5.90;;;9.20;99.90;;;;;;5090598;28;20027;-76
2022/12/22 08:34:41;;;;;;;8.40;6.22;;;9.30;99.90;;;;;;5070003;28;20024;-77
2022/12/22 08:37:13;;;;;;;7.65;5.65;;;9.40;99.90;;;;;;5070636;28;20100;-77
2022/12/22 08:39:41;;;;;;;6.95;5.57;;;9.40;99.90;;;;;;5071180;28;20024;-77
2022/12/22 08:42:10;;;;;;;8.63;6.72;;;9.50;99.90;;;;;;5070782;28;20025;-77
2022/12/22 08:44:39;;;;;;;7.97;6.10;;;9.60;99.90;;;;;;5070225;28;20060;-77
2022/12/22 08:47:05;;;;;;;7.32;5.72;;;9.70;99.90;;;;;;5068794;28;20028;-77
2022/12/22 08:49:31;;;;;;;6.38;5.45;;;10.10;99.90;;;;;;5070013;28;20028;-77
2022/12/22 08:51:56;;;;;;;6.35;5.15;;;10.10;99.90;;;;;;5070048;28;20520;-77
2022/12/22 08:54:22;;;;;;;6.03;5.00;;;10.20;99.90;;;;;;5070876;28;20036;-77
2022/12/22 08:56:48;;;;;;;5.70;4.60;;;10.40;99.90;;;;;;5070068;28;20018;-77
2022/12/22 08:59:15;;;;;;;7.30;4.57;;;10.50;99.90;;;;;;5070665;28;20021;-78
2022/12/22 09:01:43;;;;;;;7.25;4.07;;;10.70;99.90;;;;;;5070956;28;20024;-78
2022/12/22 09:04:11;;;;;;;4.85;4.07;;;11.60;99.90;;;;;;5070595;28;20470;-78
2022/12/22 09:06:37;;;;;;;4.75;3.83;;;11.90;99.90;;;;;;5070131;28;20032;-78
2022/12/22 09:09:05;;;;;;;4.97;4.30;;;13.20;99.90;;;;;;5079246;28;20489;-78
2022/12/22 09:11:32;;;;;;;5.57;4.00;;;14.90;99.90;;;;;;5089977;28;20027;-77
2022/12/22 09:14:00;;;;;;;4.75;3.78;;;16.50;99.90;;;;;;5077680;28;20028;-77
2022/12/22 09:16:28;;;;;;;3.90;3.50;;;15.80;99.90;;;;;;5070491;28;20040;-78
2022/12/22 09:18:54;;;;;;;4.70;3.45;;;13.60;99.90;;;;;;5069866;28;20509;-79
2022/12/22 09:21:21;;;;;;;4.47;3.50;;;12.70;99.90;;;;;;5070590;28;20173;-77
2022/12/22 09:23:47;;;;;;;3.40;3.05;;;12.30;99.90;;;;;;5070191;28;20036;-78
2022/12/22 09:26:17;;;;;;;3.95;3.55;;;12.00;99.90;;;;;;5069929;28;20108;-78
2022/12/22 09:28:43;;;;;;;4.72;3.33;;;12.00;99.90;;;;;;5079605;28;20032;-79
2022/12/22 09:31:09;;;;;;;4.95;3.38;;;12.00;99.90;;;;;;5073316;28;20036;-79
2022/12/22 09:33:35;;;;;;;4.05;3.25;;;11.80;99.90;;;;;;5070541;28;20024;-80
2022/12/22 09:36:09;;;;;;;3.60;3.30;;;11.90;99.90;;;;;;5069693;28;20367;-80
2022/12/22 09:38:36;;;;;;;3.22;2.92;;;11.90;99.90;;;;;;5071464;28;20030;-80
2022/12/22 09:41:19;;;;;;;4.80;3.50;;;11.90;99.90;;;;;;5069186;28;20535;-78
2022/12/22 09:43:45;;;;;;;5.78;3.65;;;12.00;99.90;;;;;;5070176;28;20021;-81
2022/12/22 09:46:22;;;;;;;4.00;3.15;;;12.10;99.90;;;;;;5084112;28;20029;-83
2022/12/22 09:48:48;;;;;;;3.38;2.50;;;12.10;99.90;;;;;;5076166;28;20130;-82
2022/12/22 09:51:16;;;;;;;3.33;2.53;;;12.20;99.90;;;;;;5069626;28;20095;-82
2022/12/22 09:53:45;;;;;;;3.47;2.70;;;12.20;99.90;;;;;;5070894;28;20023;-81
2022/12/22 09:56:16;;;;;;;2.53;2.30;;;12.30;99.90;;;;;;5066829;28;20032;-82
2022/12/22 09:58:43;;;;;;;3.05;2.50;;;12.40;99.90;;;;;;5068795;28;20108;-80
2022/12/22 10:01:35;;;;;;;2.88;2.20;;;12.60;99.90;;;;;;5077990;28;20028;-82
2022/12/22 10:04:34;;;;;;;3.53;2.30;;;12.60;99.90;;;;;;5076798;28;20024;-78
2022/12/22 10:07:15;;;;;;;2.45;2.25;;;12.60;99.90;;;;;;5068065;28;20047;-81
2022/12/22 10:09:41;;;;;;;2.60;2.40;;;12.80;99.90;;;;;;5069255;28;20028;-81
2022/12/22 10:12:17;;;;;;;2.45;1.98;;;12.80;99.90;;;;;;5068083;28;20040;-83
2022/12/22 10:14:46;;;;;;;2.75;2.10;;;12.90;99.90;;;;;;5069318;28;20036;-82
2022/12/22 10:17:31;;;;;;;3.60;2.13;;;12.90;99.90;;;;;;5068869;28;20032;-81
2022/12/22 10:20:19;;;;;;;3.20;2.08;;;13.00;99.90;;;;;;5069193;28;20032;-81
2022/12/22 10:22:58;;;;;;;2.42;1.80;;;13.00;99.90;;;;;;5068565;28;20024;-80
2022/12/22 10:25:28;;;;;;;1.80;1.70;;;12.90;99.90;;;;;;5077942;28;20019;-80
2022/12/22 10:27:59;;;;;;;2.38;2.17;;;13.20;99.90;;;;;;5089179;28;20047;-80
2022/12/22 10:30:36;;;;;;;1.75;1.60;;;13.20;99.90;;;;;;5060124;28;20082;-80
2022/12/22 10:33:06;;;;;;;1.90;1.45;;;13.30;99.90;;;;;;5068855;28;20048;-80
2022/12/22 10:35:51;;;;;;;3.15;1.60;;;13.40;99.90;;;;;;5061631;28;20095;-78
2022/12/22 10:38:25;;;;;;;5.57;1.95;;;13.50;99.90;;;;;;5064388;28;20517;-80
2022/12/22 10:40:55;;;;;;;3.03;1.75;;;13.60;99.90;;;;;;5072780;28;20063;-79
2022/12/22 10:43:28;;;;;;;2.45;1.67;;;13.60;99.90;;;;;;5073428;28;20033;-79
2022/12/22 10:45:55;;;;;;;1.60;1.50;;;13.70;99.90;;;;;;5073415;28;20505;-80
2022/12/22 10:48:38;;;;;;;1.90;1.80;;;13.90;99.90;;;;;;5073339;28;20039;-80
2022/12/22 10:51:09;;;;;;;2.80;1.50;;;14.10;99.90;;;;;;5062627;28;20031;-77
2022/12/22 10:53:43;;;;;;;2.70;1.77;;;14.10;99.90;;;;;;5072885;28;20025;-77
2022/12/22 10:56:20;;;;;;;2.00;1.30;;;14.10;99.90;;;;;;5072883;28;20271;-78
2022/12/22 10:59:16;;;;;;;1.98;1.50;;;14.20;99.90;;;;;;5072677;28;20031;-77
2022/12/22 11:01:42;;;;;;;3.08;1.70;;;14.20;99.90;;;;;;4985207;28;20046;-77
2022/12/22 11:04:26;;;;;;;2.45;1.90;;;14.30;99.90;;;;;;5008732;28;20034;-77
2022/12/22 11:06:54;;;;;;;2.05;1.88;;;14.50;99.90;;;;;;5010272;28;20084;-77
2022/12/22 11:09:20;;;;;;;1.60;1.50;;;14.60;99.90;;;;;;4996964;28;20025;-77
2022/12/22 11:12:04;;;;;;;1.30;1.20;;;14.70;99.90;;;;;;5007151;28;20037;-78
2022/12/22 11:14:48;;;;;;;2.50;1.42;;;14.70;99.90;;;;;;4993959;28;20022;-78
2022/12/22 11:17:32;;;;;;;2.70;2.13;;;15.00;99.90;;;;;;4994582;28;20123;-78
2022/12/22 11:20:17;;;;;;;1.80;1.50;;;14.70;99.90;;;;;;4994140;28;20045;-78
2022/12/22 11:22:54;;;;;;;2.53;1.80;;;15.00;99.90;;;;;;4998577;28;20069;-77
2022/12/22 11:25:45;;;;;;;2.20;2.00;;;15.10;99.90;;;;;;4990593;28;20046;-78
2022/12/22 11:28:28;;;;;;;1.50;1.40;;;14.90;99.90;;;;;;4990498;28;20043;-78
2022/12/22 11:31:21;;;;;;;2.55;1.60;;;14.90;99.90;;;;;;4990182;28;20026;-82
2022/12/22 11:34:19;;;;;;;1.60;1.30;;;14.90;99.90;;;;;;4989299;28;20053;-80
2022/12/22 11:37:19;;;;;;;2.90;1.35;;;14.90;99.90;;;;;;4990743;28;20033;-80
2022/12/22 11:39:52;;;;;;;3.92;1.60;;;15.30;99.90;;;;;;5060892;28;20082;-80
2022/12/22 11:42:39;;;;;;;1.80;1.63;;;15.40;99.90;;;;;;5072365;28;20117;-80
2022/12/22 11:45:04;;;;;;;2.00;1.60;;;15.50;99.90;;;;;;5079036;28;20024;-82
2022/12/22 11:47:49;;;;;;;2.47;1.77;;;15.30;99.90;;;;;;5073162;28;20054;-80
2022/12/22 11:50:35;;;;;;;2.05;1.85;;;15.40;99.90;;;;;;5074334;28;20073;-81
2022/12/22 11:53:21;;;;;;;4.93;1.70;;;15.70;99.90;;;;;;5081906;28;20035;-80
2022/12/22 11:56:03;;;;;;;4.00;2.28;;;15.70;99.90;;;;;;5084890;28;20019;-80
2022/12/22 11:59:16;;;;;;;3.05;2.08;;;15.80;99.90;;;;;;5076806;28;20028;-80
2022/12/22 12:01:45;;;;;;;2.67;1.92;;;15.80;99.90;;;;;;4993892;28;20519;-80
2022/12/22 12:04:35;;;;;;;3.83;2.00;;;16.00;99.90;;;;;;5003958;28;20046;-80
2022/12/22 12:07:09;;;;;;;2.50;1.92;;;16.00;99.90;;;;;;4974731;28;20105;-80
2022/12/22 12:09:52;;;;;;;2.10;1.58;;;15.80;99.90;;;;;;4988050;28;20027;-81
2022/12/22 12:12:54;;;;;;;2.13;1.60;;;15.90;99.90;;;;;;4990440;28;20538;-81
2022/12/22 12:15:25;;;;;;;2.58;1.60;;;15.90;99.90;;;;;;4989964;28;20046;-82
2022/12/22 12:18:24;;;;;;;2.05;1.63;;;16.00;99.90;;;;;;4989973;28;20062;-81
2022/12/22 12:21:20;;;;;;;2.72;1.77;;;16.00;99.90;;;;;;4987687;28;20131;-79
2022/12/22 12:24:16;;;;;;;1.77;1.67;;;15.80;99.90;;;;;;4990207;28;20050;-79
2022/12/22 12:26:55;;;;;;;3.28;2.10;;;15.80;99.90;;;;;;4989919;28;20050;-80
2022/12/22 12:29:34;;;;;;;4.15;1.98;;;15.90;99.90;;;;;;4989902;28;20054;-80
2022/12/22 12:32:08;;;;;;;2.17;1.60;;;16.20;99.90;;;;;;4989862;28;20150;-80
2022/12/22 12:34:41;;;;;;;3.92;1.80;;;16.00;99.90;;;;;;4989511;28;20033;-79
2022/12/22 12:37:34;;;;;;;3.88;1.48;;;16.40;99.90;;;;;;5018315;28;20074;-79
2022/12/22 12:40:45;;;;;;;2.60;1.65;;;16.60;99.90;;;;;;5070726;28;20060;-80
2022/12/22 12:43:12;;;;;;;3.00;1.47;;;16.60;99.90;;;;;;5071320;28;20039;-80
2022/12/22 12:45:40;;;;;;;2.60;1.75;;;16.40;99.90;;;;;;5070959;28;20036;-79
2022/12/22 12:48:21;;;;;;;1.92;1.30;;;16.20;99.90;;;;;;5071276;28;20029;-79
2022/12/22 12:50:56;;;;;;;2.10;1.43;;;16.10;99.90;;;;;;5071940;28;20029;-80
2022/12/22 12:53:29;;;;;;;1.75;1.50;;;16.40;99.90;;;;;;5071764;28;20033;-79
2022/12/22 12:56:00;;;;;;;2.97;1.30;;;16.60;99.90;;;;;;5088349;28;20047;-79
2022/12/22 12:58:37;;;;;;;;;;;16.70;99.90;;;;;;5076275;28;20032;-79
2022/12/22 13:01:03;;;;;;;1.63;1.38;;;16.50;99.90;;;;;;5071824;28;19912;-79
2022/12/22 13:03:29;;;;;;;1.77;1.30;;;16.00;99.90;;;;;;5077180;28;20073;-79
2022/12/22 13:06:00;;;;;;;2.22;1.48;;;16.20;99.90;;;;;;5074843;28;20033;-79
2022/12/22 13:08:55;;;;;;;2.47;1.20;;;16.20;99.90;;;;;;5071210;28;20027;-79
2022/12/22 13:11:30;;;;;;;2.22;1.30;;;16.20;99.90;;;;;;5048179;28;20047;-80
2022/12/22 13:13:56;;;;;;;1.52;1.40;;;16.40;99.90;;;;;;5046394;28;20222;-79
2022/12/22 13:16:25;;;;;;;1.67;1.40;;;16.30;99.90;;;;;;5047321;28;20067;-79
2022/12/22 13:18:57;;;;;;;1.52;1.17;;;16.30;99.90;;;;;;5047655;28;20082;-79
2022/12/22 13:21:43;;;;;;;;;;;16.20;99.90;;;;;;5049474;28;20036;-80
2022/12/22 13:24:28;;;;;;;2.40;1.38;;;16.10;99.90;;;;;;5048118;28;20055;-79
2022/12/22 13:26:59;;;;;;;1.08;1.00;;;16.00;99.90;;;;;;5047977;28;20045;-79
2022/12/22 13:29:44;;;;;;;1.73;1.20;;;15.90;99.90;;;;;;5031069;28;20034;-79
2022/12/22 13:32:19;;;;;;;1.38;1.10;;;16.20;99.90;;;;;;5047340;28;20082;-79
2022/12/22 13:34:45;;;;;;;1.70;1.10;;;16.30;99.90;;;;;;5048621;28;20044;-79
2022/12/22 13:37:20;;;;;;;1.33;1.08;;;16.50;99.90;;;;;;5046148;28;20430;-80
2022/12/22 13:40:20;;;;;;;1.23;0.95;;;16.50;99.90;;;;;;5048036;28;20170;-80
2022/12/22 13:42:56;;;;;;;1.13;1.02;;;16.40;99.90;;;;;;5066191;28;20081;-83
2022/12/22 13:45:33;;;;;;;1.17;0.90;;;16.40;99.90;;;;;;5053192;28;20029;-81
2022/12/22 13:48:03;;;;;;;1.30;1.10;;;16.60;99.90;;;;;;5045712;28;20510;-81
2022/12/22 13:50:36;;;;;;;0.90;0.90;;;16.50;99.90;;;;;;5071331;28;20020;-80
2022/12/22 13:53:08;;;;;;;1.95;1.35;;;16.40;99.90;;;;;;5070968;28;20028;-80
2022/12/22 13:55:35;;;;;;;2.03;1.10;;;16.50;99.90;;;;;;5070992;28;20009;-82
2022/12/22 13:58:23;;;;;;;1.45;1.23;;;16.70;99.90;;;;;;5070623;28;20024;-79
2022/12/22 14:01:09;;;;;;;2.17;1.33;;;16.80;99.90;;;;;;5083330;28;20054;-79
2022/12/22 14:03:44;;;;;;;2.53;1.58;;;17.00;99.90;;;;;;5080587;28;20036;-79
2022/12/22 14:06:32;;;;;;;3.03;1.70;;;17.00;99.90;;;;;;5070560;28;20043;-79
2022/12/22 14:09:22;;;;;;;2.53;1.70;;;17.00;99.90;;;;;;5069568;28;20028;-79
2022/12/22 14:11:59;;;;;;;3.95;2.40;;;17.10;99.90;;;;;;5070330;28;20560;-79
2022/12/22 14:14:33;;;;;;;2.80;2.03;;;17.20;99.90;;;;;;5051336;28;20031;-79
2022/12/22 14:16:59;;;;;;;2.90;2.13;;;17.10;99.90;;;;;;5054535;28;20048;-79
2022/12/22 14:19:31;;;;;;;2.15;1.90;;;16.90;99.90;;;;;;5054721;28;20421;-79
2022/12/22 14:22:10;;;;;;;2.22;1.80;;;16.80;99.90;;;;;;5064303;28;20041;-79
2022/12/22 14:24:53;;;;;;;2.55;1.70;;;16.70;99.90;;;;;;5074478;28;20027;-79
2022/12/22 14:27:53;;;;;;;1.67;1.58;;;16.60;99.90;;;;;;5073877;28;20509;-79
2022/12/22 14:30:22;;;;;;;2.13;1.63;;;16.60;99.90;;;;;;5051888;28;20090;-79
2022/12/22 14:32:50;;;;;;;1.40;1.27;;;16.40;99.90;;;;;;5051651;28;20029;-79
2022/12/22 14:35:19;;;;;;;1.50;1.20;;;16.30;99.90;;;;;;5052146;28;20552;-79
2022/12/22 14:37:52;;;;;;;1.52;1.42;;;16.30;99.90;;;;;;5051521;28;20029;-79
2022/12/22 14:40:37;;;;;;;2.67;1.00;;;16.20;99.90;;;;;;5051769;28;20155;-79
2022/12/22 14:43:12;;;;;;;1.05;0.95;;;16.20;99.90;;;;;;5051371;28;20115;-79
2022/12/22 14:45:38;;;;;;;1.95;1.30;;;16.10;99.90;;;;;;5052221;28;20048;-79
2022/12/22 14:48:07;;;;;;;1.35;1.20;;;16.00;99.90;;;;;;5052284;28;20541;-79
2022/12/22 14:50:34;;;;;;;1.38;0.90;;;15.90;99.90;;;;;;5052563;28;20029;-79
2022/12/22 14:53:03;;;;;;;1.23;1.00;;;15.90;99.90;;;;;;5052094;28;20029;-79
2022/12/22 14:55:41;;;;;;;1.83;1.23;;;15.80;99.90;;;;;;5052483;28;20032;-79
2022/12/22 14:58:09;;;;;;;1.35;1.00;;;15.90;99.90;;;;;;5052032;28;20029;-79
2022/12/22 15:00:40;;;;;;;1.33;1.08;;;15.80;99.90;;;;;;5052023;28;20033;-79
2022/12/22 15:03:35;;;;;;;0.90;0.70;;;15.60;99.90;;;;;;5052068;28;20175;-79
2022/12/22 15:06:39;;;;;;;1.55;0.93;;;15.60;99.90;;;;;;5064684;28;20028;-79
2022/12/22 15:09:06;;;;;;;1.17;0.85;;;15.60;99.90;;;;;;5073941;28;20098;-79
2022/12/22 15:11:34;;;;;;;0.70;0.70;;;15.50;99.90;;;;;;5074519;28;20013;-79
2022/12/22 15:14:01;;;;;;;1.23;0.93;;;15.50;99.90;;;;;;5073915;28;20020;-79
2022/12/22 15:16:27;;;;;;;0.93;0.90;;;15.50;99.90;;;;;;5074751;28;20017;-79
2022/12/22 15:18:53;;;;;;;0.73;0.70;;;15.50;99.90;;;;;;5074276;28;20036;-79
2022/12/22 15:21:19;;;;;;;1.77;0.90;;;15.40;99.90;;;;;;5074350;28;20024;-79
2022/12/22 15:23:45;;;;;;;1.83;0.90;;;15.40;99.90;;;;;;5074189;28;20512;-79
2022/12/22 15:26:11;;;;;;;1.77;1.60;;;15.30;99.90;;;;;;5073704;28;20103;-79
2022/12/22 15:28:37;;;;;;;1.77;1.50;;;15.30;99.90;;;;;;5073615;28;20354;-79
2022/12/22 15:31:10;;;;;;;3.28;2.13;;;15.30;99.90;;;;;;5074103;28;20016;-79
2022/12/22 15:33:36;;;;;;;2.50;2.25;;;15.20;99.90;;;;;;5074158;28;20052;-79
2022/12/22 15:36:02;;;;;;;2.55;2.22;;;15.20;99.90;;;;;;5074152;28;20528;-79
2022/12/22 15:38:28;;;;;;;2.78;2.30;;;15.10;99.90;;;;;;5073804;28;20504;-79
2022/12/22 15:40:53;;;;;;;3.42;2.30;;;15.20;99.90;;;;;;5073925;28;20025;-79
2022/12/22 15:43:19;;;;;;;2.00;1.80;;;15.10;99.90;;;;;;5072926;28;20034;-79
2022/12/22 15:45:45;;;;;;;2.00;1.80;;;15.10;99.90;;;;;;5073925;28;20538;-78
2022/12/22 15:48:44;;;;;;;3.03;1.88;;;15.10;99.90;;;;;;5073433;28;20020;-79
2022/12/22 15:51:19;;;;;;;2.70;2.10;;;15.10;99.90;;;;;;5011547;28;20029;-78
2022/12/22 15:53:45;;;;;;;2.97;2.03;;;15.10;99.90;;;;;;5011370;28;20041;-79
2022/12/22 15:56:19;;;;;;;3.13;2.22;;;15.00;99.90;;;;;;5011454;28;20100;-79
2022/12/22 15:58:45;;;;;;;2.95;2.17;;;15.00;99.90;;;;;;5010734;28;20084;-79
2022/12/22 16:01:11;;;;;;;4.22;2.47;;;14.90;99.90;;;;;;5011476;28;20029;-79
2022/12/22 16:03:37;;;;;;;3.28;1.95;;;14.90;99.90;;;;;;5018667;28;20524;-79
2022/12/22 16:06:04;;;;;;;2.65;2.20;;;14.90;99.90;;;;;;5031035;28;20033;-78
2022/12/22 16:08:35;;;;;;;2.38;1.80;;;14.80;99.90;;;;;;5030907;28;20037;-78
2022/12/22 16:11:01;;;;;;;1.70;1.60;;;14.80;99.90;;;;;;5031063;28;20021;-78
2022/12/22 16:13:28;;;;;;;2.17;1.65;;;14.70;99.90;;;;;;5030198;28;20515;-79
2022/12/22 16:15:54;;;;;;;2.30;1.98;;;14.80;99.90;;;;;;5031050;28;20018;-79
2022/12/22 16:18:19;;;;;;;2.38;2.05;;;14.70;99.90;;;;;;5030709;28;20038;-79
2022/12/22 16:20:48;;;;;;;3.00;2.40;;;14.90;99.90;;;;;;5030849;28;20037;-79
2022/12/22 16:23:22;;;;;;;4.43;2.78;;;15.00;99.90;;;;;;4991465;28;20034;-78
2022/12/22 16:25:50;;;;;;;3.67;2.75;;;15.20;99.90;;;;;;4998949;28;20026;-79
2022/12/22 16:28:23;;;;;;;3.70;2.13;;;15.50;99.90;;;;;;5052432;28;20036;-78
2022/12/22 16:30:49;;;;;;;2.75;1.58;;;15.60;99.90;;;;;;5053070;28;20024;-78
2022/12/22 16:33:15;;;;;;;3.10;1.95;;;15.60;99.90;;;;;;5053047;28;20052;-78
2022/12/22 16:35:41;;;;;;;1.65;1.40;;;15.50;99.90;;;;;;5053115;28;20013;-78
2022/12/22 16:38:08;;;;;;;3.22;1.88;;;15.40;99.90;;;;;;5063394;28;20028;-78
2022/12/22 16:40:43;;;;;;;2.67;1.58;;;15.40;99.90;;;;;;5072842;28;20028;-79
2022/12/22 16:43:24;;;;;;;1.75;1.20;;;15.30;99.90;;;;;;5072596;28;20044;-79
2022/12/22 16:45:50;;;;;;;2.20;1.33;;;15.20;99.90;;;;;;5072545;28;20024;-79
2022/12/22 16:48:41;;;;;;;1.58;1.02;;;15.10;99.90;;;;;;5072435;28;20282;-79